Time;durP1;ratioP1;P1;durP2;ratioP2;P2;SDS_P1;SDS_P2;PMS_P1;PMS_P2;Temp;Humidity;BMP_temperature;BMP_pressure;BME280_temperature;BME280_humidity;BME280_pressure;Samples;Min_cycle;Max_cycle;Signal;HPM_P1;HPM_P2
2023/03/13 00:00:52;;;;;;;27.23;5.38;;;;;;;;;;5047874;28;20021;-78
2023/03/13 00:03:18;;;;;;;24.85;6.03;;;;;;;;;;5031470;28;20037;-77
2023/03/13 00:05:44;;;;;;;24.05;5.90;;;;;;;;;;5045255;28;20032;-77
2023/03/13 00:08:10;;;;;;;25.98;5.70;;;;;;;;;;5031472;28;20021;-78
2023/03/13 00:10:40;;;;;;;28.35;5.65;;;;;;;;;;5018752;28;20026;-77
2023/03/13 00:13:07;;;;;;;30.80;5.65;;;;;;;;;;5028739;28;20370;-77
2023/03/13 00:15:33;;;;;;;25.40;6.55;;;;;;;;;;5017319;28;20040;-78
2023/03/13 00:17:59;;;;;;;24.05;4.97;;;;;;;;;;5026757;28;20057;-77
2023/03/13 00:20:25;;;;;;;35.78;6.22;;;;;;;;;;5031732;28;20040;-78
2023/03/13 00:22:51;;;;;;;35.83;5.35;;;;;;;;;;5046846;28;20029;-78
2023/03/13 00:25:17;;;;;;;25.70;5.82;;;;;;;;;;5033257;28;20576;-77
2023/03/13 00:27:44;;;;;;;25.55;6.10;;;;;;;;;;5045448;28;20092;-76
2023/03/13 00:30:10;;;;;;;32.28;6.78;;;;;;;;;;5027166;28;20060;-76
2023/03/13 00:32:44;;;;;;;25.25;6.13;;;;;;;;;;5011319;28;20069;-75
2023/03/13 00:35:11;;;;;;;35.10;6.57;;;;;;;;;;5010337;28;20037;-75
2023/03/13 00:37:37;;;;;;;27.30;6.03;;;;;;;;;;5029406;28;20028;-76
2023/03/13 00:40:04;;;;;;;35.50;6.70;;;;;;;;;;5011913;28;20025;-75
2023/03/13 00:42:30;;;;;;;33.08;6.70;;;;;;;;;;5028974;28;20476;-75
2023/03/13 00:44:56;;;;;;;27.65;6.22;;;;;;;;;;5029859;28;20024;-76
2023/03/13 00:47:23;;;;;;;18.92;5.13;;;;;;;;;;5014681;28;20359;-75
2023/03/13 00:49:49;;;;;;;22.95;5.10;;;;;;;;;;5025881;28;20374;-76
2023/03/13 00:52:15;;;;;;;23.80;5.82;;;;;;;;;;5021537;28;20078;-76
2023/03/13 00:54:42;;;;;;;23.92;4.32;;;;;;;;;;5035219;28;20061;-76
2023/03/13 00:57:08;;;;;;;20.40;4.60;;;;;;;;;;5014583;28;20032;-76
2023/03/13 00:59:34;;;;;;;17.77;4.22;;;;;;;;;;5019803;28;20033;-76
2023/03/13 01:02:00;;;;;;;22.00;3.95;;;;;;;;;;5043258;28;20573;-77
2023/03/13 01:04:26;;;;;;;12.70;3.65;;;;;;;;;;5008959;28;20120;-76
2023/03/13 01:06:53;;;;;;;14.50;3.78;;;;;;;;;;5042193;28;20500;-76
2023/03/13 01:09:19;;;;;;;17.42;3.30;;;;;;;;;;5015781;28;20075;-76
2023/03/13 01:11:46;;;;;;;15.77;3.58;;;;;;;;;;5003481;28;20489;-76
2023/03/13 01:14:17;;;;;;;8.95;3.28;;;;;;;;;;5026378;28;20030;-76
2023/03/13 01:16:43;;;;;;;16.92;3.83;;;;;;;;;;5028330;28;20044;-76
2023/03/13 01:19:11;;;;;;;12.15;3.22;;;;;;;;;;5017470;28;20040;-76
2023/03/13 01:21:37;;;;;;;13.25;3.42;;;;;;;;;;5031705;28;20032;-77
2023/03/13 01:24:03;;;;;;;17.08;4.18;;;;;;;;;;5022852;28;20389;-77
2023/03/13 01:26:29;;;;;;;10.75;3.60;;;;;;;;;;5024032;28;20112;-76
2023/03/13 01:28:56;;;;;;;11.57;3.35;;;;;;;;;;5029820;28;20025;-76
2023/03/13 01:31:22;;;;;;;14.90;2.90;;;;;;;;;;5033234;28;20022;-77
2023/03/13 01:33:50;;;;;;;10.15;3.00;;;;;;;;;;5029946;28;20473;-77
2023/03/13 01:36:17;;;;;;;10.43;2.67;;;;;;;;;;5024222;28;20036;-77
2023/03/13 01:38:44;;;;;;;10.43;2.50;;;;;;;;;;5037633;28;20030;-77
2023/03/13 01:41:12;;;;;;;9.68;2.72;;;;;;;;;;5013493;28;20378;-77
2023/03/13 01:43:39;;;;;;;9.93;2.40;;;;;;;;;;5033861;28;20026;-77
2023/03/13 01:46:05;;;;;;;9.25;1.88;;;;;;;;;;5027540;28;20104;-77
2023/03/13 01:48:40;;;;;;;10.65;2.78;;;;;;;;;;5024608;28;20104;-77
2023/03/13 01:51:13;;;;;;;5.28;1.50;;;;;;;;;;5034514;28;20022;-77
2023/03/13 01:53:41;;;;;;;9.90;1.60;;;;;;;;;;5016690;28;20091;-77
2023/03/13 01:56:09;;;;;;;6.43;1.75;;;;;;;;;;5042817;28;20088;-76
2023/03/13 01:58:37;;;;;;;4.43;1.95;;;;;;;;;;5025882;28;20084;-77
2023/03/13 02:01:03;;;;;;;6.25;1.55;;;;;;;;;;5034898;28;20026;-77
2023/03/13 02:03:30;;;;;;;5.60;1.48;;;;;;;;;;5013075;28;20036;-77
2023/03/13 02:06:00;;;;;;;3.58;1.00;;;;;;;;;;5002360;28;20017;-77
2023/03/13 02:08:37;;;;;;;3.35;1.15;;;;;;;;;;5034073;28;20520;-76
2023/03/13 02:11:07;;;;;;;7.15;1.58;;;;;;;;;;5019888;28;20536;-76
2023/03/13 02:13:33;;;;;;;5.78;1.90;;;;;;;;;;5013045;28;20109;-77
2023/03/13 02:16:00;;;;;;;15.10;1.88;;;;;;;;;;5020231;28;20026;-78
2023/03/13 02:18:27;;;;;;;14.18;2.38;;;;;;;;;;5037191;28;20108;-77
2023/03/13 02:20:56;;;;;;;18.17;2.58;;;;;;;;;;5040684;28;20035;-77
2023/03/13 02:23:27;;;;;;;14.88;3.70;;;;;;;;;;5032605;28;20120;-78
2023/03/13 02:25:53;;;;;;;18.27;4.60;;;;;;;;;;5044969;28;20026;-77
2023/03/13 02:28:38;;;;;;;23.27;4.40;;;;;;;;;;5005163;28;20064;-78
2023/03/13 02:31:08;;;;;;;16.55;3.75;;;;;;;;;;5034605;28;20022;-78
2023/03/13 02:33:37;;;;;;;25.25;4.75;;;;;;;;;;5028760;28;20061;-78
2023/03/13 02:36:03;;;;;;;19.50;4.63;;;;;;;;;;5002452;28;20021;-77
2023/03/13 02:38:32;;;;;;;27.70;5.60;;;;;;;;;;5022816;28;20034;-78
2023/03/13 02:40:59;;;;;;;28.52;5.75;;;;;;;;;;5009840;28;20060;-78
2023/03/13 02:43:30;;;;;;;26.40;4.93;;;;;;;;;;5031913;28;20037;-78
2023/03/13 02:46:16;;;;;;;21.52;5.18;;;;;;;;;;5044276;28;20053;-78
2023/03/13 02:48:50;;;;;;;28.55;5.57;;;;;;;;;;5007633;28;20034;-77
2023/03/13 02:51:26;;;;;;;25.02;5.43;;;;;;;;;;5033609;28;20441;-78
2023/03/13 02:53:55;;;;;;;25.88;4.20;;;;;;;;;;5033423;28;20052;-78
2023/03/13 02:56:23;;;;;;;26.13;5.68;;;;;;;;;;5040959;28;20029;-78
2023/03/13 02:58:49;;;;;;;22.13;4.38;;;;;;;;;;5007711;28;20033;-78
2023/03/13 03:01:16;;;;;;;29.38;4.57;;;;;;;;;;5033620;28;20163;-78
2023/03/13 03:03:42;;;;;;;31.55;5.22;;;;;;;;;;5012074;28;20042;-78
2023/03/13 03:06:08;;;;;;;28.63;4.93;;;;;;;;;;5001899;28;20014;-78
2023/03/13 03:08:35;;;;;;;30.83;5.50;;;;;;;;;;5038771;28;20030;-79
2023/03/13 03:11:04;;;;;;;28.08;6.13;;;;;;;;;;5009258;28;20025;-78
2023/03/13 03:13:32;;;;;;;21.40;5.38;;;;;;;;;;4998576;28;20463;-78
2023/03/13 03:15:58;;;;;;;25.73;5.22;;;;;;;;;;5011136;28;20018;-78
2023/03/13 03:18:24;;;;;;;25.80;4.93;;;;;;;;;;5002794;28;20044;-78
2023/03/13 03:20:50;;;;;;;29.58;5.32;;;;;;;;;;5021607;28;20058;-78
2023/03/13 03:23:17;;;;;;;27.65;5.72;;;;;;;;;;5010759;28;20038;-78
2023/03/13 03:25:43;;;;;;;23.25;5.00;;;;;;;;;;5031446;28;20014;-79
2023/03/13 03:28:10;;;;;;;24.65;4.85;;;;;;;;;;5042271;28;20489;-78
2023/03/13 03:30:37;;;;;;;22.77;4.80;;;;;;;;;;5004766;28;20030;-78
2023/03/13 03:33:03;;;;;;;24.30;4.22;;;;;;;;;;5035250;28;20084;-78
2023/03/13 03:35:29;;;;;;;19.67;4.50;;;;;;;;;;5011572;28;20389;-78
2023/03/13 03:37:56;;;;;;;24.92;4.28;;;;;;;;;;4999234;28;20029;-79
2023/03/13 03:40:29;;;;;;;22.25;4.45;;;;;;;;;;5109652;27;20422;-77
2023/03/13 03:42:56;;;;;;;16.45;4.18;;;;;;;;;;5108391;28;20103;-77
2023/03/13 03:45:22;;;;;;;19.27;4.72;;;;;;;;;;5108581;28;20024;-77
2023/03/13 03:47:48;;;;;;;13.57;3.38;;;;;;;;;;5108166;28;20078;-76
2023/03/13 03:50:15;;;;;;;10.95;2.90;;;;;;;;;;5108397;28;20024;-76
2023/03/13 03:52:51;;;;;;;18.77;3.35;;;;;;;;;;5108158;28;20032;-76
2023/03/13 03:55:19;;;;;;;23.63;4.07;;;;;;;;;;5108281;28;20441;-77
2023/03/13 03:57:45;;;;;;;14.98;3.40;;;;;;;;;;5107988;28;20024;-76
2023/03/13 04:00:18;;;;;;;21.33;3.85;;;;;;;;;;5108412;28;20425;-76
2023/03/13 04:02:50;;;;;;;19.15;3.72;;;;;;;;;;5108284;28;20465;-76
2023/03/13 04:05:17;;;;;;;21.38;4.43;;;;;;;;;;5108058;28;20020;-76
2023/03/13 04:07:43;;;;;;;27.73;6.20;;;;;;;;;;5107598;28;20494;-76
2023/03/13 04:10:09;;;;;;;26.13;4.60;;;;;;;;;;5109249;28;20436;-77
2023/03/13 04:12:41;;;;;;;24.83;4.10;;;;;;;;;;5107979;28;20028;-77
2023/03/13 04:15:08;;;;;;;26.58;4.80;;;;;;;;;;5108102;28;20036;-76
2023/03/13 04:17:35;;;;;;;27.40;4.85;;;;;;;;;;5106701;28;20031;-77
2023/03/13 04:20:03;;;;;;;31.52;5.95;;;;;;;;;;5106981;28;20027;-77
2023/03/13 04:22:30;;;;;;;26.70;5.72;;;;;;;;;;5113434;28;20475;-77
2023/03/13 04:24:57;;;;;;;27.10;5.47;;;;;;;;;;5116932;28;20039;-76
2023/03/13 04:27:23;;;;;;;33.38;5.82;;;;;;;;;;5107788;28;20032;-76
2023/03/13 04:29:51;;;;;;;36.10;6.38;;;;;;;;;;5107788;28;20040;-75
2023/03/13 04:32:40;;;;;;;34.58;6.85;;;;;;;;;;5098638;28;20488;-76
2023/03/13 04:35:18;;;;;;;33.92;5.80;;;;;;;;;;5102877;28;20127;-77
2023/03/13 04:37:57;;;;;;;30.92;5.60;;;;;;;;;;5090614;28;20035;-77
2023/03/13 04:40:44;;;;;;;30.88;5.80;;;;;;;;;;5054283;28;20159;-78
2023/03/13 04:43:21;;;;;;;26.48;5.72;;;;;;;;;;5060516;28;20036;-77
2023/03/13 04:45:57;;;;;;;37.47;6.35;;;;;;;;;;5030759;28;20044;-78
2023/03/13 04:48:39;;;;;;;37.10;6.45;;;;;;;;;;5066377;28;20033;-78
2023/03/13 04:51:31;;;;;;;41.80;6.70;;;;;;;;;;5035141;28;20038;-77
2023/03/13 04:54:15;;;;;;;42.45;7.88;;;;;;;;;;5020938;28;20021;-77
2023/03/13 04:56:51;;;;;;;40.33;6.75;;;;;;;;;;5052181;28;20033;-77
2023/03/13 04:59:35;;;;;;;24.48;5.97;;;;;;;;;;5035867;28;20183;-77
2023/03/13 05:02:35;;;;;;;30.70;6.13;;;;;;;;;;5036029;28;20037;-76
2023/03/13 05:05:19;;;;;;;45.55;7.50;;;;;;;;;;5030567;28;20120;-76
2023/03/13 05:08:09;;;;;;;32.65;5.85;;;;;;;;;;5010884;28;20061;-76
2023/03/13 05:10:56;;;;;;;36.35;7.45;;;;;;;;;;4967739;28;20507;-76
2023/03/13 05:13:42;;;;;;;36.10;7.10;;;;;;;;;;4954233;28;20043;-75
2023/03/13 05:16:31;;;;;;;37.75;6.13;;;;;;;;;;4931545;29;20405;-76
2023/03/13 05:19:16;;;;;;;36.30;6.00;;;;;;;;;;4953180;28;20495;-77
2023/03/13 05:22:05;;;;;;;35.25;8.45;;;;;;;;;;4914383;29;20044;-77
2023/03/13 05:24:55;;;;;;;35.42;6.72;;;;;;;;;;4895112;29;20036;-76
2023/03/13 05:27:27;;;;;;;36.53;7.28;;;;;;;;;;4897976;29;20043;-75
2023/03/13 05:30:08;;;;;;;41.03;7.47;;;;;;;;;;4886482;29;20516;-76
2023/03/13 05:33:01;;;;;;;48.05;8.23;;;;;;;;;;4905424;29;20389;-76
2023/03/13 05:35:41;;;;;;;49.42;7.63;;;;;;;;;;4906749;29;20040;-76
2023/03/13 05:38:27;;;;;;;27.38;6.43;;;;;;;;;;4887841;29;20048;-75
2023/03/13 05:41:14;;;;;;;37.10;6.22;;;;;;;;;;4888571;29;20032;-75
2023/03/13 05:44:01;;;;;;;41.53;8.40;;;;;;;;;;4902921;29;20055;-75
2023/03/13 05:46:50;;;;;;;42.03;6.70;;;;;;;;;;4896636;29;20374;-75
2023/03/13 05:49:31;;;;;;;45.17;7.63;;;;;;;;;;4913223;29;20087;-76
2023/03/13 05:52:13;;;;;;;40.55;9.50;;;;;;;;;;4910254;29;20075;-75
2023/03/13 05:55:05;;;;;;;43.87;7.77;;;;;;;;;;4924331;29;20859;-75
2023/03/13 05:58:01;;;;;;;34.15;8.27;;;;;;;;;;4909999;28;20524;-75
2023/03/13 06:00:47;;;;;;;44.63;7.30;;;;;;;;;;4956952;28;20065;-76
2023/03/13 06:03:43;;;;;;;43.00;7.75;;;;;;;;;;4961086;28;20074;-76
2023/03/13 06:06:11;;;;;;;45.28;7.93;;;;;;;;;;4943962;28;20046;-75
2023/03/13 06:08:43;;;;;;;40.97;7.40;;;;;;;;;;4942442;28;20034;-76
2023/03/13 06:11:10;;;;;;;44.25;8.35;;;;;;;;;;4953352;28;20514;-77
2023/03/13 06:13:36;;;;;;;43.10;8.13;;;;;;;;;;4968643;28;20559;-77
2023/03/13 06:16:11;;;;;;;46.70;8.85;;;;;;;;;;4966384;28;20034;-77
2023/03/13 06:18:42;;;;;;;45.95;7.90;;;;;;;;;;4952225;28;20034;-77
2023/03/13 06:21:08;;;;;;;48.58;8.38;;;;;;;;;;5005284;28;20025;-77
2023/03/13 06:23:34;;;;;;;43.40;8.30;;;;;;;;;;5040192;28;20031;-77
2023/03/13 06:26:00;;;;;;;52.58;9.93;;;;;;;;;;5034567;28;20060;-77
2023/03/13 06:28:27;;;;;;;37.63;7.57;;;;;;;;;;5043526;28;20021;-77
2023/03/13 06:30:54;;;;;;;42.30;7.45;;;;;;;;;;5040010;28;20024;-77
2023/03/13 06:33:20;;;;;;;56.17;8.98;;;;;;;;;;5081098;28;20136;-77
2023/03/13 06:35:46;;;;;;;41.25;8.40;;;;;;;;;;5076575;28;20032;-77
2023/03/13 06:38:12;;;;;;;42.92;7.38;;;;;;;;;;5081412;28;20514;-76
2023/03/13 06:40:38;;;;;;;45.97;7.47;;;;;;;;;;5076903;28;20494;-77
2023/03/13 06:43:04;;;;;;;42.45;7.78;;;;;;;;;;5075098;28;20028;-77
2023/03/13 06:45:30;;;;;;;50.83;8.02;;;;;;;;;;5078867;28;20265;-78
2023/03/13 06:47:56;;;;;;;40.72;8.43;;;;;;;;;;5077734;28;20081;-77
2023/03/13 06:50:23;;;;;;;48.28;9.30;;;;;;;;;;5081527;28;20399;-77
2023/03/13 06:52:49;;;;;;;50.30;9.65;;;;;;;;;;5083633;28;20034;-76
2023/03/13 06:55:15;;;;;;;48.05;7.75;;;;;;;;;;5079840;28;20395;-78
2023/03/13 06:57:41;;;;;;;49.10;8.63;;;;;;;;;;5080532;28;20024;-79
2023/03/13 07:00:10;;;;;;;43.33;8.75;;;;;;;;;;5080963;28;20063;-78
2023/03/13 07:02:36;;;;;;;43.30;8.32;;;;;;;;;;5081037;28;20020;-78
2023/03/13 07:05:05;;;;;;;42.13;7.80;;;;;;;;;;5080779;28;20033;-79
2023/03/13 07:07:34;;;;;;;40.25;8.52;;;;;;;;;;5078251;28;20016;-79
2023/03/13 07:10:01;;;;;;;45.35;9.85;;;;;;;;;;5081015;28;20024;-78
2023/03/13 07:12:27;;;;;;;42.67;8.50;;;;;;;;;;5070839;28;20027;-78
2023/03/13 07:14:53;;;;;;;52.60;9.75;;;;;;;;;;5087731;28;20024;-78
2023/03/13 07:17:19;;;;;;;51.45;8.20;;;;;;;;;;5086012;28;20028;-78
2023/03/13 07:19:45;;;;;;;40.92;9.23;;;;;;;;;;5082517;28;20032;-77
2023/03/13 07:22:11;;;;;;;49.75;7.97;;;;;;;;;;5073805;28;20511;-78
2023/03/13 07:24:37;;;;;;;50.95;9.35;;;;;;;;;;5076048;28;20050;-78
2023/03/13 07:27:04;;;;;;;42.50;8.15;;;;;;;;;;5083491;28;20496;-78
2023/03/13 07:29:30;;;;;;;51.55;7.55;;;;;;;;;;5080586;28;20034;-78
2023/03/13 07:31:56;;;;;;;44.22;8.52;;;;;;;;;;5077464;28;20488;-77
2023/03/13 07:34:22;;;;;;;48.75;7.72;;;;;;;;;;5080485;28;20025;-78
2023/03/13 07:36:48;;;;;;;47.10;9.23;;;;;;;;;;5086850;28;20388;-78
2023/03/13 07:39:14;;;;;;;56.58;9.02;;;;;;;;;;5073228;28;20048;-78
2023/03/13 07:41:41;;;;;;;51.38;8.77;;;;;;;;;;5081143;28;20024;-78
2023/03/13 07:44:07;;;;;;;37.22;7.97;;;;;;;;;;5085147;28;20039;-78
2023/03/13 07:46:33;;;;;;;41.00;7.45;;;;;;;;;;5075329;28;20023;-78
2023/03/13 07:48:59;;;;;;;56.72;8.27;;;;;;;;;;5085123;28;20067;-78
2023/03/13 07:51:26;;;;;;;46.30;8.90;;;;;;;;;;5072214;28;20023;-78
2023/03/13 07:53:52;;;;;;;51.88;8.88;;;;;;;;;;5085868;28;20035;-78
2023/03/13 07:56:20;;;;;;;41.65;7.88;;;;;;;;;;5079643;28;20032;-78
2023/03/13 07:58:46;;;;;;;51.67;9.25;;;;;;;;;;5091226;28;20047;-78
2023/03/13 08:01:17;;;;;;;38.30;7.80;;;;;;;;;;5072315;28;20369;-78
2023/03/13 08:03:44;;;;;;;64.10;8.98;;;;;;;;;;5070522;28;20388;-78
2023/03/13 08:06:15;;;;;;;45.08;8.32;;;;;;;;;;5071863;28;20028;-78
2023/03/13 08:08:41;;;;;;;52.13;7.80;;;;;;;;;;5077958;28;20038;-78
2023/03/13 08:11:09;;;;;;;44.05;9.15;;;;;;;;;;5075608;28;20020;-78
2023/03/13 08:13:36;;;;;;;46.65;9.50;;;;;;;;;;5081005;28;20066;-78
2023/03/13 08:16:03;;;;;;;46.00;7.63;;;;;;;;;;5083766;28;20024;-78
2023/03/13 08:18:33;;;;;;;43.80;8.82;;;;;;;;;;5071830;28;20033;-78
2023/03/13 08:21:03;;;;;;;50.50;8.10;;;;;;;;;;5082465;28;20122;-78
2023/03/13 08:23:30;;;;;;;50.08;8.68;;;;;;;;;;5078240;28;20076;-78
2023/03/13 08:26:00;;;;;;;40.13;6.40;;;;;;;;;;5083750;28;20484;-78
2023/03/13 08:28:26;;;;;;;55.55;9.35;;;;;;;;;;5089356;28;20035;-78
2023/03/13 08:30:53;;;;;;;38.10;7.85;;;;;;;;;;5075797;28;20035;-78
2023/03/13 08:33:19;;;;;;;38.70;7.60;;;;;;;;;;5077258;28;20498;-78
2023/03/13 08:35:45;;;;;;;44.50;7.85;;;;;;;;;;5084741;28;20028;-78
2023/03/13 08:38:11;;;;;;;49.38;9.48;;;;;;;;;;5085645;28;20020;-78
2023/03/13 08:40:37;;;;;;;50.80;11.23;;;;;;;;;;5080930;28;20047;-78
2023/03/13 08:43:03;;;;;;;45.67;7.82;;;;;;;;;;5093787;28;20096;-78
2023/03/13 08:45:29;;;;;;;40.70;8.70;;;;;;;;;;5080655;28;20479;-78
2023/03/13 08:47:55;;;;;;;43.13;6.65;;;;;;;;;;5085432;28;20027;-78
2023/03/13 08:50:22;;;;;;;42.30;7.68;;;;;;;;;;5079453;28;20034;-79
2023/03/13 08:52:48;;;;;;;36.00;6.80;;;;;;;;;;5092801;28;20016;-77
2023/03/13 08:55:14;;;;;;;39.63;7.65;;;;;;;;;;5091067;28;20020;-79
2023/03/13 08:57:40;;;;;;;54.67;9.48;;;;;;;;;;5090308;28;20511;-78
2023/03/13 09:00:07;;;;;;;45.90;8.35;;;;;;;;;;5087699;28;20020;-79
2023/03/13 09:02:33;;;;;;;45.83;8.50;;;;;;;;;;5082118;28;20028;-78
2023/03/13 09:04:59;;;;;;;30.33;10.25;;;;;;;;;;5082567;28;20044;-79
2023/03/13 09:07:25;;;;;;;39.67;8.32;;;;;;;;;;5085122;28;20028;-79
2023/03/13 09:09:51;;;;;;;34.47;7.78;;;;;;;;;;5075293;28;20017;-79
2023/03/13 09:12:17;;;;;;;41.90;8.48;;;;;;;;;;5075231;28;20033;-78
2023/03/13 09:14:43;;;;;;;47.03;8.40;;;;;;;;;;5078239;28;20055;-78
2023/03/13 09:17:10;;;;;;;45.08;8.52;;;;;;;;;;5089777;28;20031;-78
2023/03/13 09:19:36;;;;;;;43.50;7.53;;;;;;;;;;5074366;28;20480;-78
2023/03/13 09:22:02;;;;;;;50.58;9.25;;;;;;;;;;5082415;28;20032;-78
2023/03/13 09:24:28;;;;;;;42.25;8.20;;;;;;;;;;5094580;28;20074;-78
2023/03/13 09:26:54;;;;;;;56.35;11.23;;;;;;;;;;5074840;28;20032;-78
2023/03/13 09:29:20;;;;;;;50.88;10.80;;;;;;;;;;5080914;28;20408;-78
2023/03/13 09:31:46;;;;;;;49.80;8.32;;;;;;;;;;5074098;28;20111;-78
2023/03/13 09:34:12;;;;;;;40.17;8.32;;;;;;;;;;5088106;28;20029;-78
2023/03/13 09:36:39;;;;;;;46.45;8.52;;;;;;;;;;5088107;28;20028;-79
2023/03/13 09:39:05;;;;;;;43.15;7.00;;;;;;;;;;5076667;28;20068;-78
2023/03/13 09:41:34;;;;;;;45.90;7.72;;;;;;;;;;5089480;28;20035;-78
2023/03/13 09:44:03;;;;;;;35.13;7.00;;;;;;;;;;5082176;28;20275;-78
2023/03/13 09:46:37;;;;;;;51.75;8.90;;;;;;;;;;5084139;28;20024;-78
2023/03/13 09:49:09;;;;;;;38.78;9.85;;;;;;;;;;5092455;28;20051;-78
2023/03/13 09:51:37;;;;;;;43.17;8.15;;;;;;;;;;5075017;28;20041;-78
2023/03/13 09:54:07;;;;;;;55.45;8.40;;;;;;;;;;5080568;28;20107;-78
2023/03/13 09:56:50;;;;;;;39.65;7.70;;;;;;;;;;5082617;28;20543;-77
2023/03/13 09:59:19;;;;;;;51.35;7.07;;;;;;;;;;5091990;28;20032;-77
2023/03/13 10:01:47;;;;;;;32.28;6.20;;;;;;;;;;5074177;28;20086;-77
2023/03/13 10:04:19;;;;;;;47.03;8.57;;;;;;;;;;5093010;28;20474;-79
2023/03/13 10:06:47;;;;;;;43.63;9.18;;;;;;;;;;5076691;28;20112;-79
2023/03/13 10:09:19;;;;;;;51.75;7.97;;;;;;;;;;5083738;28;20020;-79
2023/03/13 10:11:59;;;;;;;47.60;8.73;;;;;;;;;;5083726;28;20042;-79
2023/03/13 10:14:35;;;;;;;46.50;8.35;;;;;;;;;;5089833;28;20085;-79
2023/03/13 10:17:05;;;;;;;43.20;7.75;;;;;;;;;;5082890;28;20050;-80
2023/03/13 10:19:34;;;;;;;40.10;7.47;;;;;;;;;;5074280;28;20021;-80
2023/03/13 10:22:02;;;;;;;52.10;8.73;;;;;;;;;;5071858;28;20063;-80
2023/03/13 10:24:39;;;;;;;54.72;8.27;;;;;;;;;;5089543;28;20085;-80
2023/03/13 10:27:08;;;;;;;44.10;8.10;;;;;;;;;;5079505;28;20020;-79
2023/03/13 10:29:34;;;;;;;49.72;8.50;;;;;;;;;;5091236;28;20020;-79
2023/03/13 10:32:01;;;;;;;62.38;8.88;;;;;;;;;;5076270;28;20028;-78
2023/03/13 10:34:29;;;;;;;57.38;8.23;;;;;;;;;;5085260;28;20027;-79
2023/03/13 10:37:00;;;;;;;42.28;7.07;;;;;;;;;;5078080;28;20499;-80
2023/03/13 10:39:27;;;;;;;42.20;7.35;;;;;;;;;;5091271;28;20049;-79
2023/03/13 10:41:58;;;;;;;52.88;8.98;;;;;;;;;;5078176;28;20028;-80
2023/03/13 10:44:30;;;;;;;43.08;7.20;;;;;;;;;;5086163;28;20051;-80
2023/03/13 10:46:57;;;;;;;55.97;7.95;;;;;;;;;;5074908;28;20020;-80
2023/03/13 10:49:24;;;;;;;41.72;7.82;;;;;;;;;;5089676;28;20032;-81
2023/03/13 10:51:51;;;;;;;39.17;7.28;;;;;;;;;;5086308;28;20028;-80
2023/03/13 10:54:20;;;;;;;38.88;8.07;;;;;;;;;;5079505;28;20028;-80
2023/03/13 10:56:47;;;;;;;44.25;8.25;;;;;;;;;;5083642;28;20028;-80
2023/03/13 10:59:26;;;;;;;37.45;8.57;;;;;;;;;;5086562;28;20081;-80
2023/03/13 11:01:53;;;;;;;48.35;7.95;;;;;;;;;;5092282;28;20035;-81
2023/03/13 11:04:25;;;;;;;54.25;8.77;;;;;;;;;;5078804;28;20017;-80
2023/03/13 11:06:51;;;;;;;54.00;10.23;;;;;;;;;;5089639;28;20115;-79
2023/03/13 11:09:18;;;;;;;54.00;8.20;;;;;;;;;;5090748;28;20031;-79
2023/03/13 11:11:52;;;;;;;46.58;7.85;;;;;;;;;;5075621;28;20089;-79
2023/03/13 11:14:20;;;;;;;57.33;9.45;;;;;;;;;;5072281;28;20476;-79
2023/03/13 11:16:48;;;;;;;50.75;8.05;;;;;;;;;;5084185;28;20396;-79
2023/03/13 11:19:17;;;;;;;41.05;8.93;;;;;;;;;;5079983;28;20540;-80
2023/03/13 11:21:43;;;;;;;43.22;7.78;;;;;;;;;;5083423;28;20130;-80
2023/03/13 11:24:14;;;;;;;44.83;7.75;;;;;;;;;;5087021;28;20028;-79
2023/03/13 11:26:56;;;;;;;43.10;7.40;;;;;;;;;;5081795;28;20048;-80
2023/03/13 11:29:28;;;;;;;41.00;7.30;;;;;;;;;;5087918;28;20067;-80
2023/03/13 11:31:58;;;;;;;43.78;8.07;;;;;;;;;;5087067;28;20320;-79
2023/03/13 11:34:26;;;;;;;41.63;7.40;;;;;;;;;;5085059;28;20024;-79
2023/03/13 11:37:11;;;;;;;31.42;7.13;;;;;;;;;;5090051;28;20055;-80
2023/03/13 11:39:40;;;;;;;41.97;6.82;;;;;;;;;;5071883;28;20130;-80
2023/03/13 11:42:06;;;;;;;42.88;7.38;;;;;;;;;;5076446;28;20025;-80
2023/03/13 11:44:38;;;;;;;33.50;6.13;;;;;;;;;;5079138;28;20059;-80
2023/03/13 11:47:12;;;;;;;29.30;6.00;;;;;;;;;;5078433;28;20032;-80
2023/03/13 11:49:41;;;;;;;41.47;7.65;;;;;;;;;;5081089;28;20269;-79
2023/03/13 11:52:43;;;;;;;36.45;7.07;;;;;;;;;;5078054;28;20093;-80
2023/03/13 11:55:16;;;;;;;33.67;7.43;;;;;;;;;;4996674;28;20029;-80
2023/03/13 11:57:44;;;;;;;35.03;6.50;;;;;;;;;;4983583;28;20212;-80
2023/03/13 12:00:18;;;;;;;39.15;7.55;;;;;;;;;;4988828;28;20482;-80
2023/03/13 12:02:50;;;;;;;35.47;7.63;;;;;;;;;;5000094;28;20449;-80
2023/03/13 12:05:18;;;;;;;37.05;6.22;;;;;;;;;;5003037;28;20036;-80
2023/03/13 12:07:57;;;;;;;31.48;6.15;;;;;;;;;;5002467;28;20065;-80
2023/03/13 12:10:29;;;;;;;30.35;5.85;;;;;;;;;;4986956;28;20038;-79
2023/03/13 12:12:55;;;;;;;32.67;6.23;;;;;;;;;;5000401;28;20038;-80
2023/03/13 12:15:23;;;;;;;22.67;5.68;;;;;;;;;;5001746;28;20825;-79
2023/03/13 12:18:01;;;;;;;34.25;5.70;;;;;;;;;;4999697;28;20034;-80
2023/03/13 12:20:46;;;;;;;32.95;5.82;;;;;;;;;;5000963;28;20038;-79
2023/03/13 12:23:17;;;;;;;30.63;6.53;;;;;;;;;;5004864;28;20406;-80
2023/03/13 12:25:45;;;;;;;33.40;6.03;;;;;;;;;;5001516;28;20074;-80
2023/03/13 12:28:23;;;;;;;41.15;6.78;;;;;;;;;;4993455;28;20026;-80
2023/03/13 12:30:53;;;;;;;31.40;6.40;;;;;;;;;;5081522;28;20048;-79
2023/03/13 12:33:23;;;;;;;42.47;7.95;;;;;;;;;;5081943;28;20040;-80
2023/03/13 12:35:54;;;;;;;33.72;5.40;;;;;;;;;;5083570;28;20021;-80
2023/03/13 12:38:23;;;;;;;35.20;6.70;;;;;;;;;;5081393;28;20471;-80
2023/03/13 12:40:57;;;;;;;37.47;5.75;;;;;;;;;;5085254;28;20099;-69
2023/03/13 12:43:31;;;;;;;34.13;6.07;;;;;;;;;;5080461;28;20068;-79
2023/03/13 12:45:57;;;;;;;38.83;6.15;;;;;;;;;;5075406;28;20029;-79
2023/03/13 12:48:42;;;;;;;45.63;6.85;;;;;;;;;;5079017;28;20017;-79
2023/03/13 12:51:23;;;;;;;33.55;6.53;;;;;;;;;;5090216;28;20107;-78
2023/03/13 12:54:02;;;;;;;34.67;6.80;;;;;;;;;;5075020;28;20053;-78
2023/03/13 12:56:43;;;;;;;35.78;6.20;;;;;;;;;;5074714;28;20070;-77
2023/03/13 12:59:12;;;;;;;35.35;5.80;;;;;;;;;;5074907;28;20024;-78
2023/03/13 13:01:43;;;;;;;35.60;7.05;;;;;;;;;;5074689;28;20028;-78
2023/03/13 13:04:24;;;;;;;33.58;5.82;;;;;;;;;;5074865;28;20107;-78
2023/03/13 13:06:56;;;;;;;33.30;5.88;;;;;;;;;;5074778;28;20032;-78
2023/03/13 13:09:22;;;;;;;30.27;5.63;;;;;;;;;;5074419;28;20036;-77
2023/03/13 13:11:49;;;;;;;31.58;6.70;;;;;;;;;;5074171;28;20032;-78
2023/03/13 13:14:18;;;;;;;37.13;7.65;;;;;;;;;;5074635;28;20024;-78
2023/03/13 13:16:46;;;;;;;39.47;6.82;;;;;;;;;;5074485;28;20059;-78
2023/03/13 13:19:38;;;;;;;32.13;5.93;;;;;;;;;;5073246;28;20039;-78
2023/03/13 13:22:23;;;;;;;34.97;6.87;;;;;;;;;;5072194;28;20573;-78
2023/03/13 13:25:09;;;;;;;38.40;6.05;;;;;;;;;;5074527;28;20255;-78
2023/03/13 13:27:35;;;;;;;40.17;6.50;;;;;;;;;;5067093;28;20064;-78
2023/03/13 13:30:04;;;;;;;35.42;6.82;;;;;;;;;;5074435;28;20028;-78
2023/03/13 13:32:38;;;;;;;25.45;6.28;;;;;;;;;;5073888;28;20035;-78
2023/03/13 13:35:17;;;;;;;27.38;5.75;;;;;;;;;;5074193;28;20029;-78
2023/03/13 13:37:44;;;;;;;31.13;6.53;;;;;;;;;;5074185;28;20036;-78
2023/03/13 13:40:16;;;;;;;27.90;4.97;;;;;;;;;;5074010;28;20052;-77
2023/03/13 13:42:55;;;;;;;38.67;7.40;;;;;;;;;;5073977;28;20496;-77
2023/03/13 13:45:26;;;;;;;30.45;5.63;;;;;;;;;;5073834;28;20270;-77
2023/03/13 13:48:11;;;;;;;41.33;6.35;;;;;;;;;;5073876;28;20051;-77
2023/03/13 13:50:38;;;;;;;34.22;5.68;;;;;;;;;;5073277;28;20115;-77
2023/03/13 13:53:22;;;;;;;47.53;7.10;;;;;;;;;;5073839;28;20388;-76
2023/03/13 13:55:49;;;;;;;34.70;6.25;;;;;;;;;;5073737;28;20107;-76
2023/03/13 13:58:23;;;;;;;23.90;6.05;;;;;;;;;;5073770;28;20028;-76
2023/03/13 14:01:16;;;;;;;27.33;5.45;;;;;;;;;;5073879;28;20226;-76
2023/03/13 14:03:42;;;;;;;31.07;6.17;;;;;;;;;;5067985;28;20036;-76
2023/03/13 14:06:16;;;;;;;30.58;6.63;;;;;;;;;;5073338;28;20029;-76
2023/03/13 14:08:44;;;;;;;26.17;4.85;;;;;;;;;;5073461;28;20028;-76
2023/03/13 14:11:31;;;;;;;23.55;3.42;;;;;;;;;;5073499;28;20099;-76
2023/03/13 14:14:17;;;;;;;22.73;3.20;;;;;;;;;;5073442;28;20067;-76
2023/03/13 14:16:48;;;;;;;24.10;3.17;;;;;;;;;;5073241;28;20039;-76
2023/03/13 14:19:21;;;;;;;18.00;5.00;;;;;;;;;;5072998;28;20036;-76
2023/03/13 14:21:47;;;;;;;19.25;4.32;;;;;;;;;;5073103;28;20028;-76
2023/03/13 14:24:14;;;;;;;32.63;6.03;;;;;;;;;;5072649;28;20501;-76
2023/03/13 14:26:42;;;;;;;18.75;3.50;;;;;;;;;;5073034;28;20028;-77
2023/03/13 14:29:15;;;;;;;18.77;3.63;;;;;;;;;;5073312;28;20017;-77
2023/03/13 14:31:41;;;;;;;;;;;;;;;;;;5073657;28;20075;-76
2023/03/13 14:34:08;;;;;;;27.27;3.47;;;;;;;;;;5081833;28;19935;-75
2023/03/13 14:36:50;;;;;;;17.38;4.60;;;;;;;;;;5092787;28;20115;-75
2023/03/13 14:39:34;;;;;;;12.73;4.10;;;;;;;;;;5078779;28;20044;-75
2023/03/13 14:42:05;;;;;;;15.23;3.80;;;;;;;;;;5093816;28;20028;-75
2023/03/13 14:44:35;;;;;;;21.20;3.38;;;;;;;;;;5086239;28;20029;-75
2023/03/13 14:47:08;;;;;;;25.10;3.60;;;;;;;;;;5079153;28;20075;-76
2023/03/13 14:49:36;;;;;;;17.58;3.25;;;;;;;;;;5080951;28;20029;-75
2023/03/13 14:52:07;;;;;;;15.18;2.67;;;;;;;;;;5082526;28;20032;-75